sensor_id;sensor_type;location;lat;lon;timestamp;temperature;humidity
18797;DHT22;9526;52.612;13.300;2024-03-02T00:02:06;7.00;99.90
18797;DHT22;9526;52.612;13.300;2024-03-02T00:04:29;7.00;99.90
18797;DHT22;9526;52.612;13.300;2024-03-02T00:06:53;7.00;99.90
18797;DHT22;9526;52.612;13.300;2024-03-02T00:09:17;7.00;99.90
18797;DHT22;9526;52.612;13.300;2024-03-02T00:11:43;7.00;99.90
18797;DHT22;9526;52.612;13.300;2024-03-02T00:14:07;7.00;99.90
18797;DHT22;9526;52.612;13.300;2024-03-02T00:16:32;7.10;99.90
18797;DHT22;9526;52.612;13.300;2024-03-02T00:18:55;7.10;99.90
18797;DHT22;9526;52.612;13.300;2024-03-02T00:21:19;7.10;99.90
18797;DHT22;9526;52.612;13.300;2024-03-02T00:23:44;7.10;99.90
18797;DHT22;9526;52.612;13.300;2024-03-02T00:26:11;7.10;99.90
18797;DHT22;9526;52.612;13.300;2024-03-02T00:28:37;7.20;99.90
18797;DHT22;9526;52.612;13.300;2024-03-02T00:31:06;7.20;99.90
18797;DHT22;9526;52.612;13.300;2024-03-02T00:33:32;7.20;99.90
18797;DHT22;9526;52.612;13.300;2024-03-02T00:35:57;7.20;99.90
18797;DHT22;9526;52.612;13.300;2024-03-02T00:38:22;7.30;99.90
18797;DHT22;9526;52.612;13.300;2024-03-02T00:40:46;7.30;99.90
18797;DHT22;9526;52.612;13.300;2024-03-02T00:46:16;7.30;99.90
18797;DHT22;9526;52.612;13.300;2024-03-02T00:48:54;7.30;99.90
18797;DHT22;9526;52.612;13.300;2024-03-02T00:51:19;7.30;99.90
18797;DHT22;9526;52.612;13.300;2024-03-02T00:53:44;7.40;99.90
18797;DHT22;9526;52.612;13.300;2024-03-02T00:56:09;7.40;99.90
18797;DHT22;9526;52.612;13.300;2024-03-02T00:58:34;7.40;99.90
18797;DHT22;9526;52.612;13.300;2024-03-02T01:00:59;7.40;99.90
18797;DHT22;9526;52.612;13.300;2024-03-02T01:03:23;7.50;99.90
18797;DHT22;9526;52.612;13.300;2024-03-02T01:05:47;7.50;99.90
18797;DHT22;9526;52.612;13.300;2024-03-02T01:08:10;7.50;99.90
18797;DHT22;9526;52.612;13.300;2024-03-02T01:10:34;7.50;99.90
18797;DHT22;9526;52.612;13.300;2024-03-02T01:12:58;7.50;99.90
18797;DHT22;9526;52.612;13.300;2024-03-02T01:15:22;7.50;99.90
18797;DHT22;9526;52.612;13.300;2024-03-02T01:17:47;7.50;99.90
18797;DHT22;9526;52.612;13.300;2024-03-02T01:20:15;7.50;99.90
18797;DHT22;9526;52.612;13.300;2024-03-02T01:22:39;7.60;99.90
18797;DHT22;9526;52.612;13.300;2024-03-02T01:25:03;7.60;99.90
18797;DHT22;9526;52.612;13.300;2024-03-02T01:27:27;7.60;99.90
18797;DHT22;9526;52.612;13.300;2024-03-02T01:29:51;7.60;99.90
18797;DHT22;9526;52.612;13.300;2024-03-02T01:32:15;7.70;99.90
18797;DHT22;9526;52.612;13.300;2024-03-02T01:34:40;7.70;99.90
18797;DHT22;9526;52.612;13.300;2024-03-02T01:37:04;7.70;99.90
18797;DHT22;9526;52.612;13.300;2024-03-02T01:39:28;7.80;99.90
18797;DHT22;9526;52.612;13.300;2024-03-02T01:41:52;7.80;99.90
18797;DHT22;9526;52.612;13.300;2024-03-02T01:44:16;7.80;99.90
18797;DHT22;9526;52.612;13.300;2024-03-02T01:46:40;7.80;99.90
18797;DHT22;9526;52.612;13.300;2024-03-02T01:49:04;7.80;99.90
18797;DHT22;9526;52.612;13.300;2024-03-02T01:51:29;7.80;99.90
18797;DHT22;9526;52.612;13.300;2024-03-02T01:53:53;7.80;99.90
18797;DHT22;9526;52.612;13.300;2024-03-02T01:56:16;7.80;99.90
18797;DHT22;9526;52.612;13.300;2024-03-02T01:58:40;7.80;99.90
18797;DHT22;9526;52.612;13.300;2024-03-02T02:01:05;7.80;99.90
18797;DHT22;9526;52.612;13.300;2024-03-02T02:03:29;7.80;99.90
18797;DHT22;9526;52.612;13.300;2024-03-02T02:05:53;7.80;99.90
18797;DHT22;9526;52.612;13.300;2024-03-02T02:08:18;7.90;99.90
18797;DHT22;9526;52.612;13.300;2024-03-02T02:10:42;7.90;99.90
18797;DHT22;9526;52.612;13.300;2024-03-02T02:13:05;7.90;99.90
18797;DHT22;9526;52.612;13.300;2024-03-02T02:15:30;7.90;99.90
18797;DHT22;9526;52.612;13.300;2024-03-02T02:17:57;7.90;99.90
18797;DHT22;9526;52.612;13.300;2024-03-02T02:20:22;7.90;99.90
18797;DHT22;9526;52.612;13.300;2024-03-02T02:22:55;7.90;99.90
18797;DHT22;9526;52.612;13.300;2024-03-02T02:25:20;7.90;99.90
18797;DHT22;9526;52.612;13.300;2024-03-02T02:27:43;7.90;99.90
18797;DHT22;9526;52.612;13.300;2024-03-02T02:30:08;7.90;99.90
18797;DHT22;9526;52.612;13.300;2024-03-02T02:32:32;7.90;99.90
18797;DHT22;9526;52.612;13.300;2024-03-02T02:34:56;7.90;99.90
18797;DHT22;9526;52.612;13.300;2024-03-02T02:37:20;7.90;99.90
18797;DHT22;9526;52.612;13.300;2024-03-02T02:39:45;7.90;99.90
18797;DHT22;9526;52.612;13.300;2024-03-02T02:42:09;7.90;99.90
18797;DHT22;9526;52.612;13.300;2024-03-02T02:44:32;7.90;99.90
18797;DHT22;9526;52.612;13.300;2024-03-02T02:46:56;7.90;99.90
18797;DHT22;9526;52.612;13.300;2024-03-02T02:49:20;7.90;99.90
18797;DHT22;9526;52.612;13.300;2024-03-02T02:51:43;7.90;99.90
18797;DHT22;9526;52.612;13.300;2024-03-02T02:54:07;7.90;99.90
18797;DHT22;9526;52.612;13.300;2024-03-02T02:56:32;7.90;99.90
18797;DHT22;9526;52.612;13.300;2024-03-02T02:58:56;7.90;99.90
18797;DHT22;9526;52.612;13.300;2024-03-02T03:01:19;7.90;99.90
18797;DHT22;9526;52.612;13.300;2024-03-02T03:03:43;7.90;99.90
18797;DHT22;9526;52.612;13.300;2024-03-02T03:06:07;7.90;99.90
18797;DHT22;9526;52.612;13.300;2024-03-02T03:08:31;7.90;99.90
18797;DHT22;9526;52.612;13.300;2024-03-02T03:10:55;7.90;99.90
18797;DHT22;9526;52.612;13.300;2024-03-02T03:13:20;8.00;99.90
18797;DHT22;9526;52.612;13.300;2024-03-02T03:15:44;8.00;99.90
18797;DHT22;9526;52.612;13.300;2024-03-02T03:18:08;8.00;99.90
18797;DHT22;9526;52.612;13.300;2024-03-02T03:20:33;8.00;99.90
18797;DHT22;9526;52.612;13.300;2024-03-02T03:22:57;8.00;99.90
18797;DHT22;9526;52.612;13.300;2024-03-02T03:25:21;8.00;99.90
18797;DHT22;9526;52.612;13.300;2024-03-02T03:27:44;8.00;99.90
18797;DHT22;9526;52.612;13.300;2024-03-02T03:30:11;8.00;99.90
18797;DHT22;9526;52.612;13.300;2024-03-02T03:32:35;8.00;99.90
18797;DHT22;9526;52.612;13.300;2024-03-02T03:34:59;8.10;99.90
18797;DHT22;9526;52.612;13.300;2024-03-02T03:37:22;8.10;99.90
18797;DHT22;9526;52.612;13.300;2024-03-02T03:39:47;8.10;99.90
18797;DHT22;9526;52.612;13.300;2024-03-02T03:42:11;8.10;99.90
18797;DHT22;9526;52.612;13.300;2024-03-02T03:44:35;8.10;99.90
18797;DHT22;9526;52.612;13.300;2024-03-02T03:47:00;8.10;99.90
18797;DHT22;9526;52.612;13.300;2024-03-02T03:49:24;8.20;99.90
18797;DHT22;9526;52.612;13.300;2024-03-02T03:51:48;8.20;99.90
18797;DHT22;9526;52.612;13.300;2024-03-02T03:54:12;8.20;99.90
18797;DHT22;9526;52.612;13.300;2024-03-02T03:56:36;8.20;99.90
18797;DHT22;9526;52.612;13.300;2024-03-02T03:59:00;8.30;99.90
18797;DHT22;9526;52.612;13.300;2024-03-02T04:01:24;8.30;99.90
18797;DHT22;9526;52.612;13.300;2024-03-02T04:03:49;8.30;99.90
18797;DHT22;9526;52.612;13.300;2024-03-02T04:06:13;8.30;99.90
18797;DHT22;9526;52.612;13.300;2024-03-02T04:08:38;8.30;99.90
18797;DHT22;9526;52.612;13.300;2024-03-02T04:11:02;8.30;99.90
18797;DHT22;9526;52.612;13.300;2024-03-02T04:13:26;8.30;99.90
18797;DHT22;9526;52.612;13.300;2024-03-02T04:15:50;8.30;99.90
18797;DHT22;9526;52.612;13.300;2024-03-02T04:18:14;8.40;99.90
18797;DHT22;9526;52.612;13.300;2024-03-02T04:20:39;8.40;99.90
18797;DHT22;9526;52.612;13.300;2024-03-02T04:23:03;8.40;99.90
18797;DHT22;9526;52.612;13.300;2024-03-02T04:25:27;8.40;99.90
18797;DHT22;9526;52.612;13.300;2024-03-02T04:27:51;8.40;99.90
18797;DHT22;9526;52.612;13.300;2024-03-02T04:30:14;8.40;99.90
18797;DHT22;9526;52.612;13.300;2024-03-02T04:32:38;8.40;99.90
18797;DHT22;9526;52.612;13.300;2024-03-02T04:35:02;8.50;99.90
18797;DHT22;9526;52.612;13.300;2024-03-02T04:37:27;8.50;99.90
18797;DHT22;9526;52.612;13.300;2024-03-02T04:39:51;8.50;99.90
18797;DHT22;9526;52.612;13.300;2024-03-02T04:42:15;8.50;99.90
18797;DHT22;9526;52.612;13.300;2024-03-02T04:44:39;8.50;99.90
18797;DHT22;9526;52.612;13.300;2024-03-02T04:47:03;8.50;99.90
18797;DHT22;9526;52.612;13.300;2024-03-02T04:49:27;8.50;99.90
18797;DHT22;9526;52.612;13.300;2024-03-02T04:51:50;8.50;99.90
18797;DHT22;9526;52.612;13.300;2024-03-02T04:54:16;8.50;99.90
18797;DHT22;9526;52.612;13.300;2024-03-02T04:56:39;8.60;99.90
18797;DHT22;9526;52.612;13.300;2024-03-02T04:59:07;8.50;99.90
18797;DHT22;9526;52.612;13.300;2024-03-02T05:01:30;8.60;99.90
18797;DHT22;9526;52.612;13.300;2024-03-02T05:03:54;8.60;99.90
18797;DHT22;9526;52.612;13.300;2024-03-02T05:06:18;8.50;99.90
18797;DHT22;9526;52.612;13.300;2024-03-02T05:08:42;8.60;99.90
18797;DHT22;9526;52.612;13.300;2024-03-02T05:11:08;8.60;99.90
18797;DHT22;9526;52.612;13.300;2024-03-02T05:13:50;8.60;99.90
18797;DHT22;9526;52.612;13.300;2024-03-02T05:16:13;8.60;99.90
18797;DHT22;9526;52.612;13.300;2024-03-02T05:18:37;8.60;99.90
18797;DHT22;9526;52.612;13.300;2024-03-02T05:21:01;8.60;99.90
18797;DHT22;9526;52.612;13.300;2024-03-02T05:23:25;8.60;99.90
18797;DHT22;9526;52.612;13.300;2024-03-02T05:25:49;8.60;99.90
18797;DHT22;9526;52.612;13.300;2024-03-02T05:28:14;8.60;99.90
18797;DHT22;9526;52.612;13.300;2024-03-02T05:30:37;8.60;99.90
18797;DHT22;9526;52.612;13.300;2024-03-02T05:33:01;8.60;99.90
18797;DHT22;9526;52.612;13.300;2024-03-02T05:35:25;8.60;99.90
18797;DHT22;9526;52.612;13.300;2024-03-02T05:37:49;8.70;99.90
18797;DHT22;9526;52.612;13.300;2024-03-02T05:40:12;8.70;99.90
18797;DHT22;9526;52.612;13.300;2024-03-02T05:42:36;8.70;99.90
18797;DHT22;9526;52.612;13.300;2024-03-02T05:45:01;8.70;99.90
18797;DHT22;9526;52.612;13.300;2024-03-02T05:47:25;8.70;99.90
18797;DHT22;9526;52.612;13.300;2024-03-02T05:49:50;8.70;99.90
18797;DHT22;9526;52.612;13.300;2024-03-02T05:52:13;8.70;99.90
18797;DHT22;9526;52.612;13.300;2024-03-02T05:54:37;8.70;99.90
18797;DHT22;9526;52.612;13.300;2024-03-02T05:57:01;8.80;99.90
18797;DHT22;9526;52.612;13.300;2024-03-02T05:59:39;8.80;99.90
18797;DHT22;9526;52.612;13.300;2024-03-02T06:02:04;8.90;99.90
18797;DHT22;9526;52.612;13.300;2024-03-02T06:04:28;8.90;99.90
18797;DHT22;9526;52.612;13.300;2024-03-02T06:06:51;8.90;99.90
18797;DHT22;9526;52.612;13.300;2024-03-02T06:09:16;9.00;99.90
18797;DHT22;9526;52.612;13.300;2024-03-02T06:11:42;9.00;99.90
18797;DHT22;9526;52.612;13.300;2024-03-02T06:14:07;9.00;99.90
18797;DHT22;9526;52.612;13.300;2024-03-02T06:16:31;9.00;99.90
18797;DHT22;9526;52.612;13.300;2024-03-02T06:18:57;9.10;99.90
18797;DHT22;9526;52.612;13.300;2024-03-02T06:21:20;9.00;99.90
18797;DHT22;9526;52.612;13.300;2024-03-02T06:23:44;9.10;99.90
18797;DHT22;9526;52.612;13.300;2024-03-02T06:26:08;9.10;99.90
18797;DHT22;9526;52.612;13.300;2024-03-02T06:28:32;9.20;99.90
18797;DHT22;9526;52.612;13.300;2024-03-02T06:30:55;9.10;99.90
18797;DHT22;9526;52.612;13.300;2024-03-02T06:33:19;9.20;99.90
18797;DHT22;9526;52.612;13.300;2024-03-02T06:35:44;9.20;99.90
18797;DHT22;9526;52.612;13.300;2024-03-02T06:38:08;9.20;99.90
18797;DHT22;9526;52.612;13.300;2024-03-02T06:40:32;9.20;99.90
18797;DHT22;9526;52.612;13.300;2024-03-02T06:42:56;9.20;99.90
18797;DHT22;9526;52.612;13.300;2024-03-02T06:45:20;9.20;99.90
18797;DHT22;9526;52.612;13.300;2024-03-02T06:47:43;9.30;99.90
18797;DHT22;9526;52.612;13.300;2024-03-02T06:50:08;9.30;99.90
18797;DHT22;9526;52.612;13.300;2024-03-02T06:52:33;9.40;99.90
18797;DHT22;9526;52.612;13.300;2024-03-02T06:54:57;9.40;99.90
18797;DHT22;9526;52.612;13.300;2024-03-02T06:57:21;9.50;99.90
18797;DHT22;9526;52.612;13.300;2024-03-02T06:59:46;9.50;99.90
18797;DHT22;9526;52.612;13.300;2024-03-02T07:02:12;9.40;99.90
18797;DHT22;9526;52.612;13.300;2024-03-02T07:04:36;9.50;99.90
18797;DHT22;9526;52.612;13.300;2024-03-02T07:06:59;9.40;99.90
18797;DHT22;9526;52.612;13.300;2024-03-02T07:09:24;9.50;99.90
18797;DHT22;9526;52.612;13.300;2024-03-02T07:11:48;9.40;99.90
18797;DHT22;9526;52.612;13.300;2024-03-02T07:14:13;9.40;99.90
18797;DHT22;9526;52.612;13.300;2024-03-02T07:16:37;9.40;99.90
18797;DHT22;9526;52.612;13.300;2024-03-02T07:19:02;9.40;99.90
18797;DHT22;9526;52.612;13.300;2024-03-02T07:21:26;9.40;99.90
18797;DHT22;9526;52.612;13.300;2024-03-02T07:23:51;9.40;99.90
18797;DHT22;9526;52.612;13.300;2024-03-02T07:26:16;9.40;99.90
18797;DHT22;9526;52.612;13.300;2024-03-02T07:28:44;9.40;99.90
18797;DHT22;9526;52.612;13.300;2024-03-02T07:31:08;9.40;99.90
18797;DHT22;9526;52.612;13.300;2024-03-02T07:33:32;9.50;99.90
18797;DHT22;9526;52.612;13.300;2024-03-02T07:35:56;9.50;99.90
18797;DHT22;9526;52.612;13.300;2024-03-02T07:38:24;9.50;99.90
18797;DHT22;9526;52.612;13.300;2024-03-02T07:40:48;9.50;99.90
18797;DHT22;9526;52.612;13.300;2024-03-02T07:43:14;9.60;99.90
18797;DHT22;9526;52.612;13.300;2024-03-02T07:45:37;9.60;99.90
18797;DHT22;9526;52.612;13.300;2024-03-02T07:48:01;9.70;99.90
18797;DHT22;9526;52.612;13.300;2024-03-02T07:50:26;9.70;99.90
18797;DHT22;9526;52.612;13.300;2024-03-02T07:52:50;9.60;99.90
18797;DHT22;9526;52.612;13.300;2024-03-02T07:55:14;9.70;99.90
18797;DHT22;9526;52.612;13.300;2024-03-02T07:57:38;9.70;99.90
18797;DHT22;9526;52.612;13.300;2024-03-02T08:00:05;9.80;99.90
18797;DHT22;9526;52.612;13.300;2024-03-02T08:02:33;9.80;99.90
18797;DHT22;9526;52.612;13.300;2024-03-02T08:04:56;9.80;99.90
18797;DHT22;9526;52.612;13.300;2024-03-02T08:07:20;9.90;99.90
18797;DHT22;9526;52.612;13.300;2024-03-02T08:09:44;9.80;99.90
18797;DHT22;9526;52.612;13.300;2024-03-02T08:12:08;9.80;99.90
18797;DHT22;9526;52.612;13.300;2024-03-02T08:14:32;9.90;99.90
18797;DHT22;9526;52.612;13.300;2024-03-02T08:16:57;9.90;99.90
18797;DHT22;9526;52.612;13.300;2024-03-02T08:19:23;9.90;99.90
18797;DHT22;9526;52.612;13.300;2024-03-02T08:21:49;9.90;99.90
18797;DHT22;9526;52.612;13.300;2024-03-02T08:24:13;10.00;99.90
18797;DHT22;9526;52.612;13.300;2024-03-02T08:26:37;10.00;99.90
18797;DHT22;9526;52.612;13.300;2024-03-02T08:29:01;10.00;99.90
18797;DHT22;9526;52.612;13.300;2024-03-02T08:31:25;10.00;99.90
18797;DHT22;9526;52.612;13.300;2024-03-02T08:33:50;10.00;99.90
18797;DHT22;9526;52.612;13.300;2024-03-02T08:36:14;10.10;99.90
18797;DHT22;9526;52.612;13.300;2024-03-02T08:38:39;10.10;99.90
18797;DHT22;9526;52.612;13.300;2024-03-02T08:41:03;10.20;99.90
18797;DHT22;9526;52.612;13.300;2024-03-02T08:43:27;10.20;99.90
18797;DHT22;9526;52.612;13.300;2024-03-02T08:45:51;10.30;99.90
18797;DHT22;9526;52.612;13.300;2024-03-02T08:48:15;10.30;99.90
18797;DHT22;9526;52.612;13.300;2024-03-02T08:50:41;10.30;99.90
18797;DHT22;9526;52.612;13.300;2024-03-02T08:53:05;10.30;99.90
18797;DHT22;9526;52.612;13.300;2024-03-02T08:55:29;10.30;99.90
18797;DHT22;9526;52.612;13.300;2024-03-02T08:57:53;10.40;99.90
18797;DHT22;9526;52.612;13.300;2024-03-02T09:00:17;10.40;99.90
18797;DHT22;9526;52.612;13.300;2024-03-02T09:02:41;10.50;99.90
18797;DHT22;9526;52.612;13.300;2024-03-02T09:05:05;10.60;99.90
18797;DHT22;9526;52.612;13.300;2024-03-02T09:07:32;10.60;99.90
18797;DHT22;9526;52.612;13.300;2024-03-02T09:09:56;10.60;99.90
18797;DHT22;9526;52.612;13.300;2024-03-02T09:12:20;10.70;99.90
18797;DHT22;9526;52.612;13.300;2024-03-02T09:14:44;10.70;99.90
18797;DHT22;9526;52.612;13.300;2024-03-02T09:17:08;10.60;99.90
18797;DHT22;9526;52.612;13.300;2024-03-02T09:19:32;10.60;99.90
18797;DHT22;9526;52.612;13.300;2024-03-02T09:21:56;10.60;99.90
18797;DHT22;9526;52.612;13.300;2024-03-02T09:24:22;10.70;99.90
18797;DHT22;9526;52.612;13.300;2024-03-02T09:26:46;10.60;99.90
18797;DHT22;9526;52.612;13.300;2024-03-02T09:29:10;10.60;99.90
18797;DHT22;9526;52.612;13.300;2024-03-02T09:31:39;10.60;99.90
18797;DHT22;9526;52.612;13.300;2024-03-02T09:34:03;10.60;99.90
18797;DHT22;9526;52.612;13.300;2024-03-02T09:36:27;10.60;99.90
18797;DHT22;9526;52.612;13.300;2024-03-02T09:38:50;10.70;99.90
18797;DHT22;9526;52.612;13.300;2024-03-02T09:41:16;10.70;99.90
18797;DHT22;9526;52.612;13.300;2024-03-02T09:43:41;10.80;99.90
18797;DHT22;9526;52.612;13.300;2024-03-02T09:46:05;10.80;99.90
18797;DHT22;9526;52.612;13.300;2024-03-02T09:48:30;10.90;99.90
18797;DHT22;9526;52.612;13.300;2024-03-02T09:50:53;10.80;99.90
18797;DHT22;9526;52.612;13.300;2024-03-02T09:53:18;10.80;99.90
18797;DHT22;9526;52.612;13.300;2024-03-02T09:55:46;10.70;99.90
18797;DHT22;9526;52.612;13.300;2024-03-02T09:58:11;10.70;99.90
18797;DHT22;9526;52.612;13.300;2024-03-02T10:00:35;10.80;99.90
18797;DHT22;9526;52.612;13.300;2024-03-02T10:02:57;10.80;99.90
18797;DHT22;9526;52.612;13.300;2024-03-02T10:05:26;10.80;99.90
18797;DHT22;9526;52.612;13.300;2024-03-02T10:07:59;10.90;99.90
18797;DHT22;9526;52.612;13.300;2024-03-02T10:10:34;11.00;99.90
18797;DHT22;9526;52.612;13.300;2024-03-02T10:13:04;11.10;99.90
18797;DHT22;9526;52.612;13.300;2024-03-02T10:15:30;11.20;99.90
18797;DHT22;9526;52.612;13.300;2024-03-02T10:17:53;11.20;99.90
18797;DHT22;9526;52.612;13.300;2024-03-02T10:20:23;11.30;99.90
18797;DHT22;9526;52.612;13.300;2024-03-02T10:22:47;11.50;99.90
18797;DHT22;9526;52.612;13.300;2024-03-02T10:25:28;11.60;99.90
18797;DHT22;9526;52.612;13.300;2024-03-02T10:28:08;11.70;99.90
18797;DHT22;9526;52.612;13.300;2024-03-02T10:30:33;11.80;99.90
18797;DHT22;9526;52.612;13.300;2024-03-02T10:32:57;11.80;99.90
18797;DHT22;9526;52.612;13.300;2024-03-02T10:35:22;11.80;99.90
18797;DHT22;9526;52.612;13.300;2024-03-02T10:37:47;11.80;99.90
18797;DHT22;9526;52.612;13.300;2024-03-02T10:40:12;11.90;99.90
18797;DHT22;9526;52.612;13.300;2024-03-02T10:42:37;12.00;99.90
18797;DHT22;9526;52.612;13.300;2024-03-02T10:45:01;12.10;99.90
18797;DHT22;9526;52.612;13.300;2024-03-02T10:47:27;12.10;99.90
18797;DHT22;9526;52.612;13.300;2024-03-02T10:49:52;12.20;99.90
18797;DHT22;9526;52.612;13.300;2024-03-02T10:52:18;12.40;99.90
18797;DHT22;9526;52.612;13.300;2024-03-02T10:54:41;12.50;99.90
18797;DHT22;9526;52.612;13.300;2024-03-02T10:57:07;12.60;99.90
18797;DHT22;9526;52.612;13.300;2024-03-02T10:59:34;12.60;99.90
18797;DHT22;9526;52.612;13.300;2024-03-02T11:02:00;12.90;99.90
18797;DHT22;9526;52.612;13.300;2024-03-02T11:04:30;13.40;99.90
18797;DHT22;9526;52.612;13.300;2024-03-02T11:06:59;13.40;99.90
18797;DHT22;9526;52.612;13.300;2024-03-02T11:09:27;13.60;99.90
18797;DHT22;9526;52.612;13.300;2024-03-02T11:12:00;13.80;99.90
18797;DHT22;9526;52.612;13.300;2024-03-02T11:14:26;13.70;99.90
18797;DHT22;9526;52.612;13.300;2024-03-02T11:16:49;13.90;99.90
18797;DHT22;9526;52.612;13.300;2024-03-02T11:19:15;14.00;99.90
18797;DHT22;9526;52.612;13.300;2024-03-02T11:21:41;14.10;99.90
18797;DHT22;9526;52.612;13.300;2024-03-02T11:24:28;14.10;99.90
18797;DHT22;9526;52.612;13.300;2024-03-02T11:27:00;14.10;99.90
18797;DHT22;9526;52.612;13.300;2024-03-02T11:29:42;14.10;99.90
18797;DHT22;9526;52.612;13.300;2024-03-02T11:32:13;14.10;99.90
18797;DHT22;9526;52.612;13.300;2024-03-02T11:34:42;14.20;99.90
18797;DHT22;9526;52.612;13.300;2024-03-02T11:37:10;14.10;99.90
18797;DHT22;9526;52.612;13.300;2024-03-02T11:39:34;14.20;99.90
18797;DHT22;9526;52.612;13.300;2024-03-02T11:41:58;14.00;99.90
18797;DHT22;9526;52.612;13.300;2024-03-02T11:44:25;13.60;99.90
18797;DHT22;9526;52.612;13.300;2024-03-02T11:46:52;13.60;99.90
18797;DHT22;9526;52.612;13.300;2024-03-02T11:49:36;13.50;99.90
18797;DHT22;9526;52.612;13.300;2024-03-02T11:52:01;13.60;99.90
18797;DHT22;9526;52.612;13.300;2024-03-02T11:54:28;13.60;99.90
18797;DHT22;9526;52.612;13.300;2024-03-02T11:56:56;13.80;99.90
18797;DHT22;9526;52.612;13.300;2024-03-02T11:59:21;13.70;99.90
18797;DHT22;9526;52.612;13.300;2024-03-02T12:01:46;13.50;99.90
18797;DHT22;9526;52.612;13.300;2024-03-02T12:04:13;13.60;99.90
18797;DHT22;9526;52.612;13.300;2024-03-02T12:06:37;13.70;99.90
18797;DHT22;9526;52.612;13.300;2024-03-02T12:09:01;13.60;99.90
18797;DHT22;9526;52.612;13.300;2024-03-02T12:11:27;13.70;99.90
18797;DHT22;9526;52.612;13.300;2024-03-02T12:13:53;13.80;99.90
18797;DHT22;9526;52.612;13.300;2024-03-02T12:16:23;13.70;99.90
18797;DHT22;9526;52.612;13.300;2024-03-02T12:18:48;13.70;99.90
18797;DHT22;9526;52.612;13.300;2024-03-02T12:21:11;13.80;99.90
18797;DHT22;9526;52.612;13.300;2024-03-02T12:23:35;14.00;99.90
18797;DHT22;9526;52.612;13.300;2024-03-02T12:25:59;14.10;99.90
18797;DHT22;9526;52.612;13.300;2024-03-02T12:28:24;13.90;99.90
18797;DHT22;9526;52.612;13.300;2024-03-02T12:30:48;14.10;99.90
18797;DHT22;9526;52.612;13.300;2024-03-02T12:33:13;14.10;99.90
18797;DHT22;9526;52.612;13.300;2024-03-02T12:35:36;14.30;99.90
18797;DHT22;9526;52.612;13.300;2024-03-02T12:38:01;14.40;99.90
18797;DHT22;9526;52.612;13.300;2024-03-02T12:40:25;14.60;99.90
18797;DHT22;9526;52.612;13.300;2024-03-02T12:42:50;14.60;99.90
18797;DHT22;9526;52.612;13.300;2024-03-02T12:45:16;14.60;99.90
18797;DHT22;9526;52.612;13.300;2024-03-02T12:47:47;14.80;99.90
18797;DHT22;9526;52.612;13.300;2024-03-02T12:50:11;14.60;99.90
18797;DHT22;9526;52.612;13.300;2024-03-02T12:52:34;14.70;99.90
18797;DHT22;9526;52.612;13.300;2024-03-02T12:54:59;14.80;99.90
18797;DHT22;9526;52.612;13.300;2024-03-02T12:57:27;14.90;99.90
18797;DHT22;9526;52.612;13.300;2024-03-02T12:59:51;14.90;99.90
18797;DHT22;9526;52.612;13.300;2024-03-02T13:02:18;14.90;99.90
18797;DHT22;9526;52.612;13.300;2024-03-02T13:04:42;15.10;99.90
18797;DHT22;9526;52.612;13.300;2024-03-02T13:07:06;15.10;99.90
18797;DHT22;9526;52.612;13.300;2024-03-02T13:09:30;15.10;99.90
18797;DHT22;9526;52.612;13.300;2024-03-02T13:11:55;15.10;99.90
18797;DHT22;9526;52.612;13.300;2024-03-02T13:14:21;15.20;99.90
18797;DHT22;9526;52.612;13.300;2024-03-02T13:16:47;15.20;99.90
18797;DHT22;9526;52.612;13.300;2024-03-02T13:19:12;15.20;99.90
18797;DHT22;9526;52.612;13.300;2024-03-02T13:21:36;15.10;99.90
18797;DHT22;9526;52.612;13.300;2024-03-02T13:24:00;15.20;99.90
18797;DHT22;9526;52.612;13.300;2024-03-02T13:26:23;15.30;99.90
18797;DHT22;9526;52.612;13.300;2024-03-02T13:28:47;15.40;99.90
18797;DHT22;9526;52.612;13.300;2024-03-02T13:31:11;15.40;99.90
18797;DHT22;9526;52.612;13.300;2024-03-02T13:33:35;15.50;99.90
18797;DHT22;9526;52.612;13.300;2024-03-02T13:36:00;15.60;99.90
18797;DHT22;9526;52.612;13.300;2024-03-02T13:38:25;15.60;99.90
18797;DHT22;9526;52.612;13.300;2024-03-02T13:40:49;15.60;99.90
18797;DHT22;9526;52.612;13.300;2024-03-02T13:43:14;15.50;99.90
18797;DHT22;9526;52.612;13.300;2024-03-02T13:45:38;15.60;99.90
18797;DHT22;9526;52.612;13.300;2024-03-02T13:48:02;15.30;99.90
18797;DHT22;9526;52.612;13.300;2024-03-02T13:50:26;15.30;99.90
18797;DHT22;9526;52.612;13.300;2024-03-02T13:52:52;15.30;99.90
18797;DHT22;9526;52.612;13.300;2024-03-02T13:55:16;15.40;99.90
18797;DHT22;9526;52.612;13.300;2024-03-02T13:57:40;15.30;99.90
18797;DHT22;9526;52.612;13.300;2024-03-02T14:00:05;15.40;99.90
18797;DHT22;9526;52.612;13.300;2024-03-02T14:02:35;15.10;99.90
18797;DHT22;9526;52.612;13.300;2024-03-02T14:04:59;15.20;99.90
18797;DHT22;9526;52.612;13.300;2024-03-02T14:07:23;15.10;99.90
18797;DHT22;9526;52.612;13.300;2024-03-02T14:09:48;15.00;99.90
18797;DHT22;9526;52.612;13.300;2024-03-02T14:12:12;15.00;99.90
18797;DHT22;9526;52.612;13.300;2024-03-02T14:14:36;15.10;99.90
18797;DHT22;9526;52.612;13.300;2024-03-02T14:17:00;15.20;99.90
18797;DHT22;9526;52.612;13.300;2024-03-02T14:19:26;15.10;99.90
18797;DHT22;9526;52.612;13.300;2024-03-02T14:21:50;15.20;99.90
18797;DHT22;9526;52.612;13.300;2024-03-02T14:24:14;15.40;99.90
18797;DHT22;9526;52.612;13.300;2024-03-02T14:26:39;15.40;99.90
18797;DHT22;9526;52.612;13.300;2024-03-02T14:29:03;15.40;99.90
18797;DHT22;9526;52.612;13.300;2024-03-02T14:31:27;15.50;99.90
18797;DHT22;9526;52.612;13.300;2024-03-02T14:33:51;15.40;99.90
18797;DHT22;9526;52.612;13.300;2024-03-02T14:36:16;15.30;99.90
18797;DHT22;9526;52.612;13.300;2024-03-02T14:38:40;15.30;99.90
18797;DHT22;9526;52.612;13.300;2024-03-02T14:41:04;15.20;99.90
18797;DHT22;9526;52.612;13.300;2024-03-02T14:43:29;15.20;99.90
18797;DHT22;9526;52.612;13.300;2024-03-02T14:45:53;15.10;99.90
18797;DHT22;9526;52.612;13.300;2024-03-02T14:48:18;15.10;99.90
18797;DHT22;9526;52.612;13.300;2024-03-02T14:50:42;15.00;99.90
18797;DHT22;9526;52.612;13.300;2024-03-02T14:53:06;14.90;99.90
18797;DHT22;9526;52.612;13.300;2024-03-02T14:55:30;14.90;99.90
18797;DHT22;9526;52.612;13.300;2024-03-02T14:57:53;14.80;99.90
18797;DHT22;9526;52.612;13.300;2024-03-02T15:00:19;14.80;99.90
18797;DHT22;9526;52.612;13.300;2024-03-02T15:02:43;14.70;99.90
18797;DHT22;9526;52.612;13.300;2024-03-02T15:05:07;14.60;99.90
18797;DHT22;9526;52.612;13.300;2024-03-02T15:07:31;14.60;99.90
18797;DHT22;9526;52.612;13.300;2024-03-02T15:09:55;14.50;99.90
18797;DHT22;9526;52.612;13.300;2024-03-02T15:12:19;14.50;99.90
18797;DHT22;9526;52.612;13.300;2024-03-02T15:14:43;14.40;99.90
18797;DHT22;9526;52.612;13.300;2024-03-02T15:17:11;14.40;99.90
18797;DHT22;9526;52.612;13.300;2024-03-02T15:19:37;14.30;99.90
18797;DHT22;9526;52.612;13.300;2024-03-02T15:22:01;14.30;99.90
18797;DHT22;9526;52.612;13.300;2024-03-02T15:24:25;14.20;99.90
18797;DHT22;9526;52.612;13.300;2024-03-02T15:26:49;14.20;99.90
18797;DHT22;9526;52.612;13.300;2024-03-02T15:29:13;14.20;99.90